Victor, MT

12:36 AM MST on November 29, 2014 (GMT -0700)
Dutch Hill | Change Station
CLOSE
Current Station
Personal Weather Station
Location: Hamilton, MT
Elevation: 3668 ft
Nearby Weather Stations

Elev 3668 ft 46.31 °N, 114.18 °W | Updated 2 seconds ago

Mostly Cloudy
Mostly Cloudy
39.8 °F
Feels Like 40 °F
N
0.0
Wind Variable Wind from SSW
Gusts 0.0 mph

Today
High -- | Low -- °F
--% Chance of Precip.
Yesterday
High -- | Low -- °F
Precip. -- in
7:57 AM 4:52 PM
Waxing Crescent, 49% visible
Pressure 29.34 in
Visibility 10.0 miles
Clouds Scattered Clouds 5500 ft
Mostly Cloudy 7000 ft
Mostly Cloudy 9000 ft
Windchill 40 °F
Dew Point 19 °F
Humidity 43%
Rainfall -999.00 in
Snow Depth Not available.
UV 0 out of 12
Pollen .10 out of 12
Air Quality Not available.
Flu Activity Not available.
METAR KMSO 290653Z AUTO 09006KT 10SM SCT055 BKN070 BKN090 06/02 A2933 RMK AO2 RAE24 SLP935 P0001 T00610022 401060050

More Conditions Fewer Conditions

Pressure 29.34 in
Visibility 10.0 miles
Clouds Scattered Clouds 5500 ft
Mostly Cloudy 7000 ft
Mostly Cloudy 9000 ft
Windchill 40 °F
Dew Point 19 °F
Humidity 43%
Rainfall -999.00 in
Snow Depth Not available.
UV 0 out of 12
Pollen .10 out of 12
Air Quality Not available.
Flu Activity Not available.
METAR KMSO 290653Z AUTO 09006KT 10SM SCT055 BKN070 BKN090 06/02 A2933 RMK AO2 RAE24 SLP935 P0001 T00610022 401060050

More Conditions Fewer Conditions

10-Day Weather Forecast

Almanac

Astronomy

Nov. 29, 2014 Rise Set
Actual Time
Civil Twilight
Nautical Twilight
Astronomical Twilight
Moon
Length of Visible Light
Length of Day
Tomorrow will be .
, % of the Moon is Illuminated

Today's Extremes

State Highs State Lows

Community

WunderPhotos

Upload Photos

1,774,432 photos uploaded!

WunderBlogs® & News

Nearby

Air Quality

  Air Quality AQ Index Pollutant
Not available.

Snow Depth

Station Depth Elevation

Earthquake Activity

City Distance Mag. Time & Date
Minimum magnitude displayed is 2.5.

Coastal Water Temperatures

Place Temperature

Nearby Weather Stations